createdAt,value
2023-01-13T00:01:18.671Z,-28.3
2023-01-13T00:03:20.151Z,-28.3
2023-01-13T00:05:21.215Z,-28.6
2023-01-13T00:11:25.805Z,-28.2
2023-01-13T00:13:26.876Z,-28.2
2023-01-13T00:15:28.333Z,-28.3
2023-01-13T00:17:29.827Z,-28.5
2023-01-13T00:19:30.788Z,-28.2
2023-01-13T00:21:32.313Z,-28.7
2023-01-13T00:23:34.061Z,-28.5
2023-01-13T00:25:35.106Z,-28.5
2023-01-13T00:27:36.435Z,-28.4
2023-01-13T00:29:38.218Z,-28.4
2023-01-13T00:31:39.324Z,-28.4
2023-01-13T00:33:41.017Z,-28.4
2023-01-13T00:35:42.268Z,-28.2
2023-01-13T00:37:43.372Z,-28.4
2023-01-13T00:39:45.056Z,-28.4
2023-01-13T00:41:46.227Z,-28.4
2023-01-13T00:43:47.147Z,-28.3
2023-01-13T00:47:50.136Z,-28.4
2023-01-13T00:51:53.301Z,-28.3
2023-01-13T00:53:54.490Z,-28.4
2023-01-13T00:57:56.895Z,-28.2
2023-01-13T00:59:58.588Z,-28.2
2023-01-13T01:02:00.301Z,-28.2
2023-01-13T01:04:02.064Z,-28.4
2023-01-13T01:08:05.490Z,-28.1
2023-01-13T01:10:07.125Z,-28.4
2023-01-13T01:12:08.271Z,-28.6
2023-01-13T01:14:10.216Z,-28.8
2023-01-13T01:16:11.640Z,-28.3
2023-01-13T01:18:12.842Z,-28.4
2023-01-13T01:20:14.230Z,-28.5
2023-01-13T01:24:16.892Z,-28.3
2023-01-13T01:26:18.553Z,-28.5
2023-01-13T01:28:20.375Z,-28.4
2023-01-13T01:30:21.654Z,-28.4
2023-01-13T01:36:25.431Z,-28.4
2023-01-13T01:40:27.556Z,-28.2
2023-01-13T01:42:29.235Z,-28
2023-01-13T01:44:30.308Z,-28.4
2023-01-13T01:46:31.796Z,-28.4
2023-01-13T01:52:35.515Z,-28.4
2023-01-13T01:54:36.857Z,-28.5
2023-01-13T01:56:38.284Z,-28.4
2023-01-13T01:58:39.817Z,-28.2
2023-01-13T02:00:41.354Z,-28.4
2023-01-13T02:02:42.694Z,-28.5
2023-01-13T02:04:44.123Z,-28.4
2023-01-13T02:06:45.453Z,-28.3
2023-01-13T02:08:47.037Z,-28.3
2023-01-13T02:10:48.533Z,-28.5
2023-01-13T02:12:49.764Z,-28.3
2023-01-13T02:14:51.161Z,-28.4
2023-01-13T02:16:52.727Z,-28.5
2023-01-13T02:18:53.968Z,-28.2
2023-01-13T02:20:55.002Z,-28.4
2023-01-13T02:22:56.700Z,-28.5
2023-01-13T02:24:58.243Z,-28.5
2023-01-13T02:26:59.196Z,-28.5
2023-01-13T02:29:01.106Z,-28.6
2023-01-13T02:31:02.979Z,-28.4
2023-01-13T02:35:05.206Z,-28.3
2023-01-13T02:37:06.741Z,-28.4
2023-01-13T02:39:07.773Z,-28.5
2023-01-13T02:41:09.191Z,-28.5
2023-01-13T02:43:10.487Z,-28.6
2023-01-13T02:45:11.759Z,-28.3
2023-01-13T02:51:15.865Z,-28.3
2023-01-13T02:53:17.607Z,-28.4
2023-01-13T02:55:18.586Z,-28.6
2023-01-13T02:57:20.229Z,-28.3
2023-01-13T02:59:21.572Z,-28.5
2023-01-13T03:01:22.674Z,-28.3
2023-01-13T03:05:25.164Z,-28.5
2023-01-13T03:07:26.541Z,-28.4
2023-01-13T03:09:28.195Z,-28.5
2023-01-13T03:11:29.879Z,-28.3
2023-01-13T03:13:31.664Z,-28.5
2023-01-13T03:15:33.521Z,-28.5
2023-01-13T03:17:34.890Z,-28.5
2023-01-13T03:21:37.864Z,-28.4
2023-01-13T03:23:39.518Z,-28.4
2023-01-13T03:25:40.464Z,-28.4
2023-01-13T03:27:41.709Z,-28.5
2023-01-13T03:29:42.922Z,-28.4
2023-01-13T03:31:44.055Z,-28.6
2023-01-13T03:33:45.228Z,-28.2
2023-01-13T03:35:46.685Z,-28.4
2023-01-13T03:37:48.070Z,-28.4
2023-01-13T03:39:49.161Z,-28.5
2023-01-13T03:43:52.611Z,-28.6
2023-01-13T03:45:53.656Z,-28.6
2023-01-13T03:47:55.285Z,-28.1
2023-01-13T03:49:56.555Z,-28.5
2023-01-13T03:53:58.993Z,-28.4
2023-01-13T03:56:00.130Z,-28.5
2023-01-13T03:58:01.349Z,-28.3
2023-01-13T04:00:02.276Z,-28.5
2023-01-13T04:02:47.348Z,-28.3
2023-01-13T04:04:48.872Z,-28
2023-01-13T04:06:49.858Z,-28.2
2023-01-13T04:08:51.118Z,-28.5
2023-01-13T04:10:52.652Z,-28.6
2023-01-13T04:12:54.129Z,-28.2
2023-01-13T04:14:55.727Z,-28.5
2023-01-13T04:16:57.380Z,-28.3
2023-01-13T04:18:58.986Z,-28.1
2023-01-13T04:21:00.373Z,-28.2
2023-01-13T04:23:01.580Z,-28.7
2023-01-13T04:25:02.887Z,-28.1
2023-01-13T04:27:04.390Z,-28.3
2023-01-13T04:31:07.235Z,-28.4
2023-01-13T04:33:08.247Z,-28.3
2023-01-13T04:35:09.901Z,-28.3
2023-01-13T04:37:11.591Z,-28.5
2023-01-13T04:43:15.958Z,-28.4
2023-01-13T04:45:17.520Z,-28.2
2023-01-13T04:47:18.750Z,-28.7
2023-01-13T04:49:20.099Z,-28.3
2023-01-13T04:51:21.220Z,-28.4
2023-01-13T04:53:22.306Z,-28.5
2023-01-13T04:57:25.325Z,-28.5
2023-01-13T04:59:27.089Z,-28.3
2023-01-13T05:01:28.398Z,-28.3
2023-01-13T05:03:29.943Z,-28.5
2023-01-13T05:05:31.025Z,-28.5
2023-01-13T05:07:32.189Z,-28.6
2023-01-13T05:09:33.988Z,-28.5
2023-01-13T05:11:34.966Z,-28.3
2023-01-13T05:13:36.287Z,-28.4
2023-01-13T05:15:37.906Z,-28.5
2023-01-13T05:19:41.238Z,-28.4
2023-01-13T05:21:42.200Z,-28.5
2023-01-13T05:23:44.001Z,-28
2023-01-13T05:25:45.388Z,-28.4
2023-01-13T05:27:47.067Z,-28.6
2023-01-13T05:29:48.710Z,-28.4
2023-01-13T05:31:49.709Z,-28.4
2023-01-13T05:33:51.169Z,-28.1
2023-01-13T05:35:52.643Z,-28.5
2023-01-13T05:41:56.616Z,-28.5
2023-01-13T05:43:58.398Z,-28.2
2023-01-13T05:45:59.610Z,-28.4
2023-01-13T05:48:00.570Z,-28.5
2023-01-13T05:50:01.829Z,-28.6
2023-01-13T05:52:11.228Z,-28.3
2023-01-13T05:56:05.198Z,-28.6
2023-01-13T05:58:07.000Z,-28.6
2023-01-13T06:00:08.293Z,-28.5
2023-01-13T06:02:10.252Z,-28.4
2023-01-13T06:04:11.574Z,-28.6
2023-01-13T06:08:14.523Z,-28.5
2023-01-13T06:10:16.173Z,-28.3
2023-01-13T06:12:18.021Z,-28.3
2023-01-13T06:14:19.042Z,-28.4
2023-01-13T06:16:21.025Z,-28.3
2023-01-13T06:18:22.722Z,-28.3
2023-01-13T06:20:24.198Z,-28.6
2023-01-13T06:22:25.470Z,-28.4
2023-01-13T06:24:27.018Z,-28.4
2023-01-13T06:26:28.233Z,-28.3
2023-01-13T06:28:29.365Z,-28.5
2023-01-13T06:30:31.171Z,-28.4
2023-01-13T06:32:32.423Z,-28.5
2023-01-13T06:34:33.350Z,-28.3
2023-01-13T06:36:43.554Z,-28.4
2023-01-13T06:38:35.469Z,-28.3
2023-01-13T06:40:36.911Z,-28.5
2023-01-13T06:42:37.939Z,-28.3
2023-01-13T06:44:39.198Z,-28.5
2023-01-13T06:46:40.673Z,-28.4
2023-01-13T06:48:42.089Z,-28.5
2023-01-13T06:50:43.939Z,-28.2
2023-01-13T06:52:45.188Z,-28.2
2023-01-13T06:54:47.024Z,-28.5
2023-01-13T06:56:48.705Z,-28.4
2023-01-13T06:58:49.922Z,-28.4
2023-01-13T07:00:50.999Z,-28.4
2023-01-13T07:02:52.780Z,-28
2023-01-13T07:06:55.798Z,-28.6
2023-01-13T07:08:57.653Z,-28.4
2023-01-13T07:10:59.363Z,-28.4
2023-01-13T07:13:00.836Z,-28.6
2023-01-13T07:15:02.241Z,-28.5
2023-01-13T07:17:04.110Z,-28.3
2023-01-13T07:21:07.042Z,-28.5
2023-01-13T07:23:08.808Z,-28.4
2023-01-13T07:25:10.489Z,-28.5
2023-01-13T07:27:12.153Z,-28.4
2023-01-13T07:29:14.069Z,-28.3
2023-01-13T07:31:15.659Z,-28.4
2023-01-13T07:33:17.333Z,-28.3
2023-01-13T07:35:18.817Z,-28.3
2023-01-13T07:37:20.111Z,-28.5
2023-01-13T07:39:21.736Z,-28.4
2023-01-13T07:43:24.359Z,-28.5
2023-01-13T07:45:25.671Z,-28.5
2023-01-13T07:47:26.791Z,-28.2
2023-01-13T07:49:28.515Z,-28.4
2023-01-13T07:51:29.828Z,-28.3
2023-01-13T07:53:31.248Z,-28.3
2023-01-13T07:55:33.070Z,-28.4
2023-01-13T07:57:34.128Z,-28.4
2023-01-13T07:59:35.766Z,-28.5
2023-01-13T08:05:39.730Z,-28.2
2023-01-13T08:07:40.706Z,-28.2
2023-01-13T08:09:42.308Z,-28.2
2023-01-13T08:11:43.553Z,-28.7
2023-01-13T08:13:44.600Z,-28.4
2023-01-13T08:15:45.644Z,-28.2
2023-01-13T08:19:48.805Z,-28.6
2023-01-13T08:21:50.108Z,-28.5
2023-01-13T08:23:51.721Z,-28.8
2023-01-13T08:25:53.347Z,-28.3
2023-01-13T08:31:57.169Z,-28.2
2023-01-13T08:33:59.101Z,-28.2
2023-01-13T08:36:00.496Z,-28
2023-01-13T08:38:01.604Z,-28.5
2023-01-13T08:40:02.990Z,-28.4
2023-01-13T08:42:04.777Z,-28.2
2023-01-13T08:44:06.228Z,-28.5
2023-01-13T08:46:08.081Z,-28.2
2023-01-13T08:48:09.546Z,-28.3
2023-01-13T08:50:10.859Z,-28.6
2023-01-13T08:52:12.456Z,-28.5
2023-01-13T08:54:13.451Z,-28.2
2023-01-13T08:56:14.458Z,-28.3
2023-01-13T08:58:16.333Z,-28.6
2023-01-13T09:00:17.377Z,-28.8
2023-01-13T09:02:19.108Z,-28.3
2023-01-13T09:04:20.435Z,-28.4
2023-01-13T09:06:21.354Z,-28.6
2023-01-13T09:08:22.284Z,-28.3
2023-01-13T09:10:23.603Z,-28.1
2023-01-13T09:12:25.059Z,-11.3
2023-01-13T09:14:26.323Z,13.1
2023-01-13T09:16:27.902Z,30.9
2023-01-13T09:18:29.796Z,81.69
2023-01-13T09:20:32.013Z,81.9
2023-01-13T09:22:32.971Z,81.9
2023-01-13T09:24:34.644Z,82.1
2023-01-13T09:30:37.936Z,-28.4
2023-01-13T09:32:39.061Z,-28.2
2023-01-13T09:34:40.194Z,-28.5
2023-01-13T09:36:42.065Z,-17.29
2023-01-13T09:38:43.556Z,-18.1
2023-01-13T09:40:44.854Z,-22.7
2023-01-13T09:46:48.038Z,-27.8
2023-01-13T09:48:49.286Z,-27.7
2023-01-13T09:50:50.584Z,-22.1
2023-01-13T09:52:51.650Z,-7.8
2023-01-13T09:54:53.296Z,-14.3
2023-01-13T09:56:54.212Z,-28.4
2023-01-13T09:58:55.950Z,-17.1
2023-01-13T10:00:57.209Z,-12.8
2023-01-13T10:02:58.543Z,-21.6
2023-01-13T10:05:00.352Z,-16.4
2023-01-13T10:07:02.237Z,-6.7
2023-01-13T10:09:03.859Z,7.3
2023-01-13T10:11:05.545Z,24.6
2023-01-13T10:13:06.726Z,7.8
2023-01-13T10:15:08.460Z,20.1
2023-01-13T10:17:09.973Z,38.8
2023-01-13T10:19:10.967Z,81.9
2023-01-13T10:21:12.316Z,82.1
2023-01-13T10:23:13.630Z,19.1
2023-01-13T10:29:17.871Z,81.9
2023-01-13T10:31:18.967Z,82
2023-01-13T10:33:20.233Z,81.9
2023-01-13T10:35:22.113Z,5
2023-01-13T10:37:23.531Z,27.4
2023-01-13T10:39:25.371Z,9.39
2023-01-13T10:43:27.809Z,82.1
2023-01-13T10:45:29.292Z,82.1
2023-01-13T10:47:30.798Z,9.1
2023-01-13T10:48:22.586Z,-16.5
2023-01-13T10:50:24.084Z,22.6
2023-01-13T10:52:25.799Z,32.5
2023-01-13T10:54:27.002Z,14
2023-01-13T10:56:28.596Z,56
2023-01-13T10:58:30.224Z,82
2023-01-13T11:00:31.430Z,-16.4
2023-01-13T11:04:34.523Z,40.09
2023-01-13T11:06:35.985Z,-3.2
2023-01-13T11:08:37.468Z,-10.9
2023-01-13T11:10:39.025Z,-9.8
2023-01-13T11:12:39.950Z,-16.2
2023-01-13T11:14:41.223Z,-28.2
2023-01-13T11:16:52.653Z,-28.4
2023-01-13T11:18:43.619Z,-17.1
2023-01-13T11:20:44.830Z,0.6
2023-01-13T11:22:46.442Z,-19
2023-01-13T11:26:48.929Z,-23
2023-01-13T11:30:52.071Z,-16.4
2023-01-13T11:32:53.259Z,-24.7
2023-01-13T11:36:55.969Z,-20.8
2023-01-13T11:38:57.302Z,-28.2
2023-01-13T11:40:58.671Z,-28.4
2023-01-13T11:43:00.116Z,-13.6
2023-01-13T11:47:03.199Z,-26.3
2023-01-13T11:49:04.197Z,-13.7
2023-01-13T11:51:05.344Z,-7.9
2023-01-13T11:53:06.716Z,-0.3
2023-01-13T11:55:07.927Z,3.4
2023-01-13T11:57:09.196Z,-7.5
2023-01-13T11:59:11.060Z,-6.8
2023-01-13T12:01:12.269Z,3.7
2023-01-13T12:03:14.085Z,-3
2023-01-13T12:05:15.510Z,-7.4
2023-01-13T12:07:17.205Z,-11.9
2023-01-13T12:09:19.010Z,-3.2
2023-01-13T12:11:20.479Z,-0.8
2023-01-13T12:15:22.919Z,35.7
2023-01-13T12:19:25.757Z,27.5
2023-01-13T12:21:26.793Z,82
2023-01-13T12:23:28.597Z,81.9
2023-01-13T12:25:29.747Z,82.1
2023-01-13T12:31:33.646Z,82.2
2023-01-13T12:33:34.668Z,82.1
2023-01-13T12:35:35.962Z,2.4
2023-01-13T12:37:36.832Z,25.5
2023-01-13T12:39:38.008Z,31
2023-01-13T12:41:39.451Z,82.1
2023-01-13T12:43:40.694Z,82.3
2023-01-13T12:45:42.475Z,82.2
2023-01-13T12:47:43.553Z,82
2023-01-13T12:49:44.951Z,82.4
2023-01-13T12:51:46.167Z,82.3
2023-01-13T12:53:47.651Z,81.9
2023-01-13T12:55:49.489Z,24.3
2023-01-13T12:57:50.559Z,45.7
2023-01-13T12:59:52.422Z,15.5
2023-01-13T13:01:53.962Z,82
2023-01-13T13:03:55.013Z,82.2
2023-01-13T13:05:56.523Z,82
2023-01-13T13:07:58.968Z,82.4
2023-01-13T13:10:00.487Z,82.2
2023-01-13T13:12:01.613Z,45.6
2023-01-13T13:14:02.507Z,82.2
2023-01-13T13:16:03.447Z,82.2
2023-01-13T13:18:05.021Z,82.1
2023-01-13T13:20:06.683Z,82.4
2023-01-13T13:22:08.149Z,82.1
2023-01-13T13:24:09.895Z,81.9
2023-01-13T13:30:14.678Z,81.8
2023-01-13T13:32:16.218Z,-9
2023-01-13T13:34:17.375Z,-12.2
2023-01-13T13:36:19.127Z,-18.4
2023-01-13T13:38:20.117Z,-27.7
2023-01-13T13:40:21.800Z,-28.5
2023-01-13T13:42:23.014Z,-28.5
2023-01-13T13:44:24.174Z,-28.3
2023-01-13T13:46:25.817Z,-28.3
2023-01-13T13:48:26.874Z,-28.3
2023-01-13T13:50:28.703Z,-20
2023-01-13T13:54:31.033Z,1.6
2023-01-13T13:56:41.489Z,-26.7
2023-01-13T14:00:35.115Z,-28.5
2023-01-13T14:02:36.294Z,-24.2
2023-01-13T14:04:37.912Z,82
2023-01-13T14:06:39.053Z,82
2023-01-13T14:08:39.966Z,-4.19
2023-01-13T14:10:41.685Z,82.1
2023-01-13T14:12:43.013Z,81.9
2023-01-13T14:14:43.947Z,10
2023-01-13T14:16:45.450Z,7.2
2023-01-13T14:18:46.917Z,82.1
2023-01-13T14:20:48.160Z,81.9
2023-01-13T14:22:49.395Z,82.1
2023-01-13T14:24:50.521Z,81.8
2023-01-13T14:26:51.616Z,82
2023-01-13T14:28:52.635Z,-0.9
2023-01-13T14:30:54.426Z,-26.2
2023-01-13T14:32:56.056Z,-26.9
2023-01-13T14:34:58.024Z,-26.9
2023-01-13T14:36:59.041Z,-27.3
2023-01-13T14:39:00.574Z,-28.3
2023-01-13T14:43:02.596Z,-19.4
2023-01-13T14:45:04.511Z,-22.3
2023-01-13T14:47:06.157Z,-28.4
2023-01-13T14:49:07.898Z,-28.5
2023-01-13T14:55:12.007Z,-28.8
2023-01-13T14:57:13.309Z,-28.5
2023-01-13T14:59:14.567Z,-28.5
2023-01-13T15:01:16.029Z,-28.4
2023-01-13T15:03:17.024Z,-28.3
2023-01-13T15:05:18.339Z,-28.2
2023-01-13T15:07:19.305Z,-28.4
2023-01-13T15:09:20.358Z,-28.5
2023-01-13T15:11:23.876Z,-28.5
2023-01-13T15:13:23.946Z,-28.4
2023-01-13T15:15:25.792Z,-28.5
2023-01-13T15:17:27.684Z,-28.3
2023-01-13T15:19:28.873Z,-28.4
2023-01-13T15:21:30.101Z,-28
2023-01-13T15:23:31.314Z,-28.2
2023-01-13T15:25:33.083Z,-28.5
2023-01-13T15:27:34.637Z,-28.3
2023-01-13T15:29:36.484Z,-28.4
2023-01-13T15:31:37.526Z,-28.2
2023-01-13T15:33:39.184Z,-28.3
2023-01-13T15:35:40.708Z,-28.3
2023-01-13T15:37:42.262Z,-28.1
2023-01-13T15:39:44.103Z,-28.6
2023-01-13T15:41:45.899Z,-28.6
2023-01-13T15:43:47.093Z,-28.4
2023-01-13T15:45:48.448Z,-28.4
2023-01-13T15:47:49.973Z,-28.5
2023-01-13T15:53:53.581Z,-28.3
2023-01-13T15:55:54.877Z,-28.3
2023-01-13T15:57:56.693Z,-28
2023-01-13T15:59:58.033Z,-28.3
2023-01-13T16:01:59.350Z,-28.3
2023-01-13T16:04:00.408Z,-28.5
2023-01-13T16:08:03.417Z,-28.4
2023-01-13T16:10:05.160Z,-28.5
2023-01-13T16:12:06.397Z,-28.4
2023-01-13T16:14:07.464Z,-28.4
2023-01-13T16:18:10.513Z,-28.4
2023-01-13T16:20:11.768Z,-28.1
2023-01-13T16:24:14.074Z,-28.5
2023-01-13T16:26:15.846Z,-28.5
2023-01-13T16:28:17.221Z,-28.4
2023-01-13T16:30:18.459Z,-28.4
2023-01-13T16:34:21.283Z,-28.3
2023-01-13T16:36:23.227Z,-28.6
2023-01-13T16:38:24.269Z,-28.3
2023-01-13T16:40:25.626Z,-28.3
2023-01-13T16:42:27.422Z,-28.3
2023-01-13T16:44:28.714Z,-28.5
2023-01-13T16:46:30.189Z,-28.4
2023-01-13T16:48:31.647Z,-28.4
2023-01-13T16:50:32.710Z,-28.2
2023-01-13T16:52:34.573Z,-28.3
2023-01-13T16:54:35.795Z,-28.5
2023-01-13T16:56:37.092Z,-28.4
2023-01-13T16:58:38.820Z,-28.5
2023-01-13T17:02:42.034Z,-28.2
2023-01-13T17:06:44.643Z,-28.2
2023-01-13T17:08:46.138Z,-28.6
2023-01-13T17:10:47.975Z,-28.5
2023-01-13T17:12:49.256Z,-28.3
2023-01-13T17:18:53.206Z,-28.6
2023-01-13T17:20:54.254Z,-28.4
2023-01-13T17:22:58.388Z,-28.4
2023-01-13T17:24:57.144Z,-28.4
2023-01-13T17:26:58.498Z,-28.6
2023-01-13T17:28:59.921Z,-28.4
2023-01-13T17:31:01.058Z,-28.6
2023-01-13T17:33:02.678Z,-28.7
2023-01-13T17:35:48.407Z,-28.4
2023-01-13T17:37:49.531Z,-28.1
2023-01-13T17:39:50.681Z,-28.4
2023-01-13T17:41:51.973Z,-28.5
2023-01-13T17:43:53.463Z,-28.3
2023-01-13T17:45:55.007Z,-28.5
2023-01-13T17:49:57.580Z,-28.2
2023-01-13T17:51:58.687Z,-28.3
2023-01-13T17:54:00.293Z,-28.3
2023-01-13T17:56:02.213Z,-28.6
2023-01-13T17:58:03.805Z,-28.4
2023-01-13T18:00:05.378Z,-28.2
2023-01-13T18:02:07.031Z,-28.4
2023-01-13T18:04:08.196Z,-28.6
2023-01-13T18:06:09.673Z,-28.6
2023-01-13T18:12:13.821Z,-28.4
2023-01-13T18:14:15.381Z,-28.2
2023-01-13T18:16:17.051Z,-28.4
2023-01-13T18:18:18.142Z,-28.4
2023-01-13T18:20:19.816Z,-28.2
2023-01-13T18:22:21.491Z,-28.3
2023-01-13T18:26:24.072Z,-28.2
2023-01-13T18:28:25.833Z,-28.5
2023-01-13T18:30:27.354Z,-28.4
2023-01-13T18:32:28.650Z,-28.3
2023-01-13T18:36:31.667Z,-28.2
2023-01-13T18:38:33.080Z,-28.6
2023-01-13T18:40:34.602Z,-28
2023-01-13T18:42:36.515Z,-28.2
2023-01-13T18:44:37.549Z,-28.6
2023-01-13T18:46:39.361Z,-28.3
2023-01-13T18:48:40.399Z,-28.3
2023-01-13T18:50:41.475Z,-28.4
2023-01-13T18:52:42.885Z,-28.4
2023-01-13T18:54:44.720Z,-28.1
2023-01-13T18:56:45.829Z,-28.3
2023-01-13T18:58:47.270Z,-28.2
2023-01-13T19:00:48.580Z,-28.4
2023-01-13T19:02:50.205Z,-28.4
2023-01-13T19:04:51.600Z,-28.4
2023-01-13T19:06:52.780Z,-28.4
2023-01-13T19:08:54.419Z,-28.4
2023-01-13T19:10:55.894Z,-28.6
2023-01-13T19:12:57.681Z,-28.5
2023-01-13T19:14:58.721Z,-28.6
2023-01-13T19:17:00.141Z,-28.4
2023-01-13T19:19:01.668Z,-28.5
2023-01-13T19:21:02.684Z,-28.4
2023-01-13T19:25:05.924Z,-28.5
2023-01-13T19:27:07.524Z,-28.5
2023-01-13T19:29:08.922Z,-28.5
2023-01-13T19:31:09.915Z,-28.4
2023-01-13T19:37:14.947Z,-28.3
2023-01-13T19:39:16.830Z,-28.4
2023-01-13T19:41:18.030Z,-28.4
2023-01-13T19:43:19.245Z,-28.4
2023-01-13T19:45:20.396Z,-28.6
2023-01-13T19:47:21.966Z,-28.4
2023-01-13T19:49:23.470Z,-28.5
2023-01-13T19:51:25.117Z,-28.3
2023-01-13T19:53:26.240Z,-28.5
2023-01-13T19:55:27.571Z,-28.5
2023-01-13T19:57:29.222Z,-28.5
2023-01-13T19:59:30.770Z,-28.3
2023-01-13T20:01:32.224Z,-28.3
2023-01-13T20:03:33.947Z,-28.4
2023-01-13T20:05:35.439Z,-28.4
2023-01-13T20:07:37.328Z,-28.6
2023-01-13T20:09:38.666Z,-28.5
2023-01-13T20:11:40.304Z,-28.2
2023-01-13T20:13:41.836Z,-28.4
2023-01-13T20:15:43.486Z,-28.6
2023-01-13T20:19:47.024Z,-28.5
2023-01-13T20:21:48.220Z,-28.5
2023-01-13T20:23:49.729Z,-28.3
2023-01-13T20:25:51.294Z,-28.4
2023-01-13T20:27:52.759Z,-28.2
2023-01-13T20:29:53.739Z,-28.3
2023-01-13T20:33:56.830Z,-28.4
2023-01-13T20:35:58.397Z,-28.5
2023-01-13T20:38:00.057Z,-28.4
2023-01-13T20:40:01.038Z,-28.5
2023-01-13T20:42:02.646Z,-28.3
2023-01-13T20:44:03.837Z,-28.2
2023-01-13T20:46:04.984Z,-28.3
2023-01-13T20:48:06.095Z,-28.4
2023-01-13T20:50:08.045Z,-28.5
2023-01-13T20:52:09.926Z,-28.3
2023-01-13T20:56:14.474Z,-28.6
2023-01-13T20:58:13.829Z,-28.2
2023-01-13T21:00:15.718Z,-28.2
2023-01-13T21:02:16.836Z,-28
2023-01-13T21:04:17.832Z,-28.6
2023-01-13T21:06:19.250Z,-28.4
2023-01-13T21:08:21.036Z,-28.4
2023-01-13T21:10:22.813Z,-28.3
2023-01-13T21:12:23.832Z,-28.3
2023-01-13T21:14:25.585Z,-28.5
2023-01-13T21:16:27.545Z,-28.5
2023-01-13T21:18:29.273Z,-28.2
2023-01-13T21:20:31.033Z,-28.4
2023-01-13T21:22:32.982Z,-28.6
2023-01-13T21:24:34.623Z,-28.2
2023-01-13T21:28:38.000Z,-28.4
2023-01-13T21:34:42.147Z,-28.3
2023-01-13T21:36:44.018Z,-28.6
2023-01-13T21:38:44.971Z,-28.4
2023-01-13T21:40:46.090Z,-28.4
2023-01-13T21:42:47.989Z,-28.1
2023-01-13T21:44:49.174Z,-28.4
2023-01-13T21:48:52.077Z,-28.6
2023-01-13T21:50:53.995Z,-28.5
2023-01-13T21:52:55.397Z,-28.3
2023-01-13T21:54:56.549Z,-28.4
2023-01-13T21:56:57.505Z,-28.4
2023-01-13T21:58:59.139Z,-28.5
2023-01-13T22:01:00.565Z,-28.3
2023-01-13T22:03:01.905Z,-28.5
2023-01-13T22:05:03.243Z,-28.4
2023-01-13T22:07:04.401Z,-28.4
2023-01-13T22:11:07.577Z,-28.4
2023-01-13T22:13:09.138Z,-28.2
2023-01-13T22:15:10.116Z,-28.4
2023-01-13T22:17:11.277Z,-28.6
2023-01-13T22:19:13.078Z,-28.4
2023-01-13T22:21:14.829Z,-28.4
2023-01-13T22:23:15.930Z,-28.6
2023-01-13T22:25:17.869Z,-28.5
2023-01-13T22:27:19.017Z,-28.3
2023-01-13T22:33:23.051Z,-28.5
2023-01-13T22:35:24.455Z,-28.4
2023-01-13T22:37:26.246Z,-28
2023-01-13T22:39:27.847Z,-28.4
2023-01-13T22:41:29.145Z,-28.2
2023-01-13T22:43:30.652Z,-28.4
2023-01-13T22:47:33.716Z,-28.5
2023-01-13T22:49:34.998Z,-28.4
2023-01-13T22:51:36.705Z,-28.2
2023-01-13T22:53:37.793Z,-28.3
2023-01-13T22:59:41.845Z,-28.3
2023-01-13T23:01:43.128Z,-28.3
2023-01-13T23:03:44.454Z,-28.4
2023-01-13T23:05:46.156Z,-28.6
2023-01-13T23:07:48.013Z,-28.3
2023-01-13T23:09:49.102Z,-28.4
2023-01-13T23:11:50.867Z,-28.4
2023-01-13T23:13:52.134Z,-28.5
2023-01-13T23:15:53.204Z,-28.4
2023-01-13T23:17:54.935Z,-28.5
2023-01-13T23:19:56.183Z,-28.5
2023-01-13T23:21:57.914Z,-28.3
2023-01-13T23:23:59.691Z,-28.3
2023-01-13T23:26:00.794Z,-28.6
2023-01-13T23:28:02.152Z,-28.5
2023-01-13T23:30:03.171Z,-28.2
2023-01-13T23:32:04.255Z,-28.5
2023-01-13T23:34:05.661Z,-28.3
2023-01-13T23:36:06.980Z,-28.4
2023-01-13T23:38:08.060Z,-28.4
2023-01-13T23:40:09.050Z,-28.5
2023-01-13T23:42:10.958Z,-28.4
2023-01-13T23:46:14.197Z,-28.5
2023-01-13T23:48:15.713Z,-28.3
2023-01-13T23:50:16.964Z,-28.4
2023-01-13T23:52:18.285Z,-28.5
2023-01-13T23:58:22.730Z,-28.3
